Terminal Aerodrome Forecast
Issued by NWS

Home | Current Version | Previous Version | Text Only | Print | Product List | Glossary On
Versions: 1 2 3 4 5 6 7 8 9 10 11 12 13 14 15 16 17 18 19 20
000
FTUS43 KGRR 271625 AAC
TAFMKG
TAF AMD
KMKG 271625Z 2716/2812 19011KT P6SM VCTS BKN035CB
      TEMPO 2718/2720 3SM TSRA BR OVC025CB
     FM272200 18008KT P6SM -SHRA VCTS OVC050CB=

USA.gov is the U.S. government's official web portal to all federal, state and local government web resources and services.